ENG ESP
Escola de Pilots
Telèfon 972234126 972 23 41 26
 
Aerbrava - meteorologia

Informació meteorològica aeronàutica

 

En aquest apartat apareix la informació meteorològica aeronàutica que és utilitzada a les pràctiques dels alumnes de l’Escola de Pilots del nostre centre durant la seva formació, pel que pot no ser actual i s’hauria d’utilitzar pel seu propi compte i risc. AERBRAVA no es fa responsable del seu ús.

 

TEMPS ACTUAL

Satèl·lit Meteorològic

sat24.com

Servei Meteorològic de Catalunya

 

LEGE 272000Z 00000KT CAVOK 11/04 Q1012
LEGE 271930Z 28004KT CAVOK 13/03 Q1012
LEGE 271900Z 31004KT 280V350 CAVOK 13/02 Q1012
LEGE 271830Z VRB02KT CAVOK 13/03 Q1012
LEGE 271800Z 31003KT CAVOK 13/03 Q1011
LEGE 271730Z 00000KT CAVOK 14/02 Q1011
LEGE 271700Z VRB01KT CAVOK 14/01 Q1011
LEGE 271630Z 36004KT CAVOK 14/02 Q1011
TAF LEGE 271700Z 2718/2818 VRB03KT CAVOK TX25/2813Z TN11/2806Z   TEMPO 2812/2818 13010KT

Aviation Weather

 
Aerbrava en el facebook Aerbrava en el twitter Aerbrava instagram Aerbrava en el youtube Aerbrava tumblr Aerbrava flikr Aerbrava pinterest

¡html Vàlid! ¡CSS Vàlid!